PWSweather.com
Personal Weather Stations
Station Observations
SD92115WX
El Cerrito Stoneybluff, San Diego, CA 92115

El Cerrito StoneybluffSan Diego, CA 92115

Lat: 32.754096, Lon: -117.066705

Elevation: 420

Station Type: Davis Vantage Vue

http://stoneybluff.com

High Low Average
Temperature 67.6°F19.8°C 58.5°F14.7°C 61.4°F16.3°C
Dew Point 56.7°F13.7°C 53.4°F11.9°C 54.5°F12.5°C
Winds 9.2 mph 14.8 kmh Calm Calm 3.0 mph SW4.8 kmh SW
Wind Gusts 13.9 mph22.4 kmh -- 6.0 mph9.7 kmh
Humidity 86% 64% 78%
Pressure 29.85 in1010.8 mb 29.78 in1008.5 mb -
Precipitation 0.00 in0.0 mm - -
Hour Temp Dew Point Humidity Winds Wind Gusts Pressure Precip Precip Rate Daily Precip Total
12:01 AM 59.7°F15.4°C 55.2°F12.9°C 85% 1.1 mph SW1.8 kmh SW 3.1 mph5.0 kmh 29.82 in1009.8 mb 0.00 in0.0 mm 0.00 in0.0 mm 0.00 in0.0 mm
12:06 AM 59.7°F15.4°C 55.2°F12.9°C 85% 1.8 mph WSW2.9 kmh WSW 3.1 mph5.0 kmh 29.82 in1009.8 mb 0.00 in0.0 mm 0.00 in0.0 mm 0.00 in0.0 mm
12:11 AM 59.7°F15.4°C 55.2°F12.9°C 85% 0.7 mph SW1.1 kmh SW 3.1 mph5.0 kmh 29.82 in1009.8 mb 0.00 in0.0 mm 0.00 in0.0 mm 0.00 in0.0 mm
12:16 AM 59.7°F15.4°C 55.2°F12.9°C 85% 0.2 mph WSW0.3 kmh WSW 3.1 mph5.0 kmh 29.82 in1009.8 mb 0.00 in0.0 mm 0.00 in0.0 mm 0.00 in0.0 mm
12:21 AM 59.5°F15.3°C 55.0°F12.8°C 85% 1.6 mph WSW2.6 kmh WSW 3.1 mph5.0 kmh 29.82 in1009.8 mb 0.00 in0.0 mm 0.00 in0.0 mm 0.00 in0.0 mm
12:26 AM 59.5°F15.3°C 55.0°F12.8°C 85% 1.1 mph SW1.8 kmh SW 4.3 mph6.9 kmh 29.82 in1009.8 mb 0.00 in0.0 mm 0.00 in0.0 mm 0.00 in0.0 mm
12:31 AM 59.7°F15.4°C 55.2°F12.9°C 85% 1.6 mph SW2.6 kmh SW 4.3 mph6.9 kmh 29.82 in1009.8 mb 0.00 in0.0 mm 0.00 in0.0 mm 0.00 in0.0 mm
12:36 AM 59.7°F15.4°C 55.2°F12.9°C 85% 2.0 mph SSW3.2 kmh SSW 3.1 mph5.0 kmh 29.82 in1009.8 mb 0.00 in0.0 mm 0.00 in0.0 mm 0.00 in0.0 mm
12:41 AM 59.5°F15.3°C 55.0°F12.8°C 85% 2.0 mph WSW3.2 kmh WSW 5.4 mph8.7 kmh 29.82 in1009.8 mb 0.00 in0.0 mm 0.00 in0.0 mm 0.00 in0.0 mm
12:46 AM 59.5°F15.3°C 55.0°F12.8°C 85% 1.1 mph WSW1.8 kmh WSW 4.3 mph6.9 kmh 29.82 in1009.8 mb 0.00 in0.0 mm 0.00 in0.0 mm 0.00 in0.0 mm
12:51 AM 59.5°F15.3°C 55.0°F12.8°C 85% 1.1 mph SW1.8 kmh SW 3.1 mph5.0 kmh 29.81 in1009.5 mb 0.00 in0.0 mm 0.00 in0.0 mm 0.00 in0.0 mm
12:56 AM 59.5°F15.3°C 55.0°F12.8°C 85% 0.9 mph SW1.4 kmh SW 3.1 mph5.0 kmh 29.81 in1009.5 mb 0.00 in0.0 mm 0.00 in0.0 mm 0.00 in0.0 mm
01:01 AM 59.5°F15.3°C 55.0°F12.8°C 85% 0.9 mph WSW1.4 kmh WSW 2.0 mph3.2 kmh 29.82 in1009.8 mb 0.00 in0.0 mm 0.00 in0.0 mm 0.00 in0.0 mm
01:06 AM 59.4°F15.2°C 54.9°F12.7°C 85% 0.4 mph SW0.6 kmh SW 4.3 mph6.9 kmh 29.82 in1009.8 mb 0.00 in0.0 mm 0.00 in0.0 mm 0.00 in0.0 mm
01:11 AM 59.4°F15.2°C 54.9°F12.7°C 85% 1.1 mph WSW1.8 kmh WSW 3.1 mph5.0 kmh 29.82 in1009.8 mb 0.00 in0.0 mm 0.00 in0.0 mm 0.00 in0.0 mm
01:16 AM 59.4°F15.2°C 54.9°F12.7°C 85% 2.0 mph SW3.2 kmh SW 4.3 mph6.9 kmh 29.82 in1009.8 mb 0.00 in0.0 mm 0.00 in0.0 mm 0.00 in0.0 mm
01:21 AM 59.5°F15.3°C 55.0°F12.8°C 85% 0.7 mph SSW1.1 kmh SSW 2.0 mph3.2 kmh 29.82 in1009.8 mb 0.00 in0.0 mm 0.00 in0.0 mm 0.00 in0.0 mm
01:26 AM 59.5°F15.3°C 55.0°F12.8°C 85% 1.8 mph SW2.9 kmh SW 4.3 mph6.9 kmh 29.81 in1009.5 mb 0.00 in0.0 mm 0.00 in0.0 mm 0.00 in0.0 mm
01:31 AM 59.4°F15.2°C 54.9°F12.7°C 85% 2.0 mph WSW3.2 kmh WSW 4.3 mph6.9 kmh 29.81 in1009.5 mb 0.00 in0.0 mm 0.00 in0.0 mm 0.00 in0.0 mm
01:36 AM 59.4°F15.2°C 54.9°F12.7°C 85% 0.4 mph SW0.6 kmh SW 3.1 mph5.0 kmh 29.81 in1009.5 mb 0.00 in0.0 mm 0.00 in0.0 mm 0.00 in0.0 mm
01:41 AM 59.4°F15.2°C 54.9°F12.7°C 85% 2.5 mph SW4.0 kmh SW 4.3 mph6.9 kmh 29.81 in1009.5 mb 0.00 in0.0 mm 0.00 in0.0 mm 0.00 in0.0 mm
01:46 AM 59.4°F15.2°C 54.9°F12.7°C 85% Calm Calm 3.1 mph5.0 kmh 29.81 in1009.5 mb 0.00 in0.0 mm 0.00 in0.0 mm 0.00 in0.0 mm
01:51 AM 59.4°F15.2°C 54.9°F12.7°C 85% Calm Calm 2.0 mph3.2 kmh 29.81 in1009.5 mb 0.00 in0.0 mm 0.00 in0.0 mm 0.00 in0.0 mm
01:56 AM 59.4°F15.2°C 54.9°F12.7°C 85% 0.7 mph WSW1.1 kmh WSW 2.0 mph3.2 kmh 29.81 in1009.5 mb 0.00 in0.0 mm 0.00 in0.0 mm 0.00 in0.0 mm
02:01 AM 59.4°F15.2°C 54.9°F12.7°C 85% Calm Calm 1.1 mph1.8 kmh 29.81 in1009.5 mb 0.00 in0.0 mm 0.00 in0.0 mm 0.00 in0.0 mm
02:06 AM 59.4°F15.2°C 54.9°F12.7°C 85% 1.6 mph SSW2.6 kmh SSW 3.1 mph5.0 kmh 29.81 in1009.5 mb 0.00 in0.0 mm 0.00 in0.0 mm 0.00 in0.0 mm
02:11 AM 59.4°F15.2°C 54.9°F12.7°C 85% 0.9 mph SW1.4 kmh SW 2.0 mph3.2 kmh 29.81 in1009.5 mb 0.00 in0.0 mm 0.00 in0.0 mm 0.00 in0.0 mm
02:16 AM 59.4°F15.2°C 54.9°F12.7°C 85% 0.4 mph W0.6 kmh W 3.1 mph5.0 kmh 29.80 in1009.1 mb 0.00 in0.0 mm 0.00 in0.0 mm 0.00 in0.0 mm
02:21 AM 59.4°F15.2°C 54.9°F12.7°C 85% Calm Calm 2.0 mph3.2 kmh 29.80 in1009.1 mb 0.00 in0.0 mm 0.00 in0.0 mm 0.00 in0.0 mm
02:26 AM 59.2°F15.1°C 54.7°F12.6°C 85% 1.1 mph SW1.8 kmh SW 3.1 mph5.0 kmh 29.80 in1009.1 mb 0.00 in0.0 mm 0.00 in0.0 mm 0.00 in0.0 mm
02:31 AM 59.2°F15.1°C 54.7°F12.6°C 85% 1.6 mph SW2.6 kmh SW 3.1 mph5.0 kmh 29.80 in1009.1 mb 0.00 in0.0 mm 0.00 in0.0 mm 0.00 in0.0 mm
02:36 AM 59.2°F15.1°C 55.0°F12.8°C 86% 2.7 mph SSW4.3 kmh SSW 4.3 mph6.9 kmh 29.80 in1009.1 mb 0.00 in0.0 mm 0.00 in0.0 mm 0.00 in0.0 mm
02:41 AM 59.2°F15.1°C 55.0°F12.8°C 86% 2.7 mph SW4.3 kmh SW 4.3 mph6.9 kmh 29.80 in1009.1 mb 0.00 in0.0 mm 0.00 in0.0 mm 0.00 in0.0 mm
02:46 AM 59.0°F15.0°C 54.9°F12.7°C 86% 1.6 mph SW2.6 kmh SW 4.3 mph6.9 kmh 29.80 in1009.1 mb 0.00 in0.0 mm 0.00 in0.0 mm 0.00 in0.0 mm
02:51 AM 58.8°F14.9°C 54.7°F12.6°C 86% 2.2 mph SW3.5 kmh SW 6.3 mph10.1 kmh 29.80 in1009.1 mb 0.00 in0.0 mm 0.00 in0.0 mm 0.00 in0.0 mm
02:56 AM 58.8°F14.9°C 54.7°F12.6°C 86% 0.4 mph WSW0.6 kmh WSW 3.1 mph5.0 kmh 29.80 in1009.1 mb 0.00 in0.0 mm 0.00 in0.0 mm 0.00 in0.0 mm
03:01 AM 58.8°F14.9°C 54.7°F12.6°C 86% 0.4 mph SSW0.6 kmh SSW 2.0 mph3.2 kmh 29.80 in1009.1 mb 0.00 in0.0 mm 0.00 in0.0 mm 0.00 in0.0 mm
03:06 AM 58.8°F14.9°C 54.7°F12.6°C 86% Calm Calm 1.1 mph1.8 kmh 29.80 in1009.1 mb 0.00 in0.0 mm 0.00 in0.0 mm 0.00 in0.0 mm
03:11 AM 58.8°F14.9°C 54.7°F12.6°C 86% Calm Calm 1.1 mph1.8 kmh 29.79 in1008.8 mb 0.00 in0.0 mm 0.00 in0.0 mm 0.00 in0.0 mm
03:16 AM 58.8°F14.9°C 54.7°F12.6°C 86% 0.2 mph SW0.3 kmh SW 3.1 mph5.0 kmh 29.80 in1009.1 mb 0.00 in0.0 mm 0.00 in0.0 mm 0.00 in0.0 mm
03:21 AM 59.0°F15.0°C 54.9°F12.7°C 86% Calm Calm 1.1 mph1.8 kmh 29.80 in1009.1 mb 0.00 in0.0 mm 0.00 in0.0 mm 0.00 in0.0 mm
03:26 AM 59.0°F15.0°C 54.9°F12.7°C 86% 1.1 mph SW1.8 kmh SW 3.1 mph5.0 kmh 29.80 in1009.1 mb 0.00 in0.0 mm 0.00 in0.0 mm 0.00 in0.0 mm
03:31 AM 59.0°F15.0°C 54.5°F12.5°C 85% 0.9 mph SSW1.4 kmh SSW 4.3 mph6.9 kmh 29.79 in1008.8 mb 0.00 in0.0 mm 0.00 in0.0 mm 0.00 in0.0 mm
03:36 AM 59.0°F15.0°C 54.5°F12.5°C 85% 1.3 mph S2.1 kmh S 3.1 mph5.0 kmh 29.79 in1008.8 mb 0.00 in0.0 mm 0.00 in0.0 mm 0.00 in0.0 mm
03:41 AM 59.0°F15.0°C 54.5°F12.5°C 85% 1.1 mph SW1.8 kmh SW 2.0 mph3.2 kmh 29.79 in1008.8 mb 0.00 in0.0 mm 0.00 in0.0 mm 0.00 in0.0 mm
03:46 AM 59.0°F15.0°C 54.5°F12.5°C 85% 0.9 mph WSW1.4 kmh WSW 3.1 mph5.0 kmh 29.79 in1008.8 mb 0.00 in0.0 mm 0.00 in0.0 mm 0.00 in0.0 mm
03:51 AM 59.0°F15.0°C 54.5°F12.5°C 85% Calm Calm 1.1 mph1.8 kmh 29.79 in1008.8 mb 0.00 in0.0 mm 0.00 in0.0 mm 0.00 in0.0 mm
03:56 AM 58.8°F14.9°C 54.3°F12.4°C 85% Calm Calm 1.1 mph1.8 kmh 29.79 in1008.8 mb 0.00 in0.0 mm 0.00 in0.0 mm 0.00 in0.0 mm
04:01 AM 58.8°F14.9°C 54.3°F12.4°C 85% Calm Calm -- 29.79 in1008.8 mb 0.00 in0.0 mm 0.00 in0.0 mm 0.00 in0.0 mm
04:06 AM 58.8°F14.9°C 54.7°F12.6°C 86% 0.7 mph SSW1.1 kmh SSW 1.1 mph1.8 kmh 29.79 in1008.8 mb 0.00 in0.0 mm 0.00 in0.0 mm 0.00 in0.0 mm
04:11 AM 58.8°F14.9°C 54.7°F12.6°C 86% 0.7 mph WSW1.1 kmh WSW 2.0 mph3.2 kmh 29.79 in1008.8 mb 0.00 in0.0 mm 0.00 in0.0 mm 0.00 in0.0 mm
04:16 AM 58.8°F14.9°C 54.7°F12.6°C 86% Calm Calm 2.0 mph3.2 kmh 29.79 in1008.8 mb 0.00 in0.0 mm 0.00 in0.0 mm 0.00 in0.0 mm
04:21 AM 58.6°F14.8°C 54.1°F12.3°C 85% 0.7 mph W1.1 kmh W 2.0 mph3.2 kmh 29.79 in1008.8 mb 0.00 in0.0 mm 0.00 in0.0 mm 0.00 in0.0 mm
04:26 AM 58.6°F14.8°C 54.1°F12.3°C 85% 0.4 mph W0.6 kmh W 2.0 mph3.2 kmh 29.79 in1008.8 mb 0.00 in0.0 mm 0.00 in0.0 mm 0.00 in0.0 mm
04:31 AM 58.6°F14.8°C 54.5°F12.5°C 86% 0.4 mph SW0.6 kmh SW 1.1 mph1.8 kmh 29.79 in1008.8 mb 0.00 in0.0 mm 0.00 in0.0 mm 0.00 in0.0 mm
04:36 AM 58.6°F14.8°C 54.1°F12.3°C 85% 1.3 mph WSW2.1 kmh WSW 2.0 mph3.2 kmh 29.79 in1008.8 mb 0.00 in0.0 mm 0.00 in0.0 mm 0.00 in0.0 mm
04:41 AM 58.6°F14.8°C 54.1°F12.3°C 85% 3.1 mph SW5.0 kmh SW 5.4 mph8.7 kmh 29.79 in1008.8 mb 0.00 in0.0 mm 0.00 in0.0 mm 0.00 in0.0 mm
04:46 AM 58.6°F14.8°C 54.1°F12.3°C 85% 1.8 mph SSW2.9 kmh SSW 5.4 mph8.7 kmh 29.79 in1008.8 mb 0.00 in0.0 mm 0.00 in0.0 mm 0.00 in0.0 mm
04:51 AM 58.6°F14.8°C 54.1°F12.3°C 85% 1.6 mph WSW2.6 kmh WSW 4.3 mph6.9 kmh 29.79 in1008.8 mb 0.00 in0.0 mm 0.00 in0.0 mm 0.00 in0.0 mm
04:56 AM 58.5°F14.7°C 54.0°F12.2°C 85% 1.6 mph WSW2.6 kmh WSW 3.1 mph5.0 kmh 29.79 in1008.8 mb 0.00 in0.0 mm 0.00 in0.0 mm 0.00 in0.0 mm
05:01 AM 58.5°F14.7°C 54.0°F12.2°C 85% 0.9 mph S1.4 kmh S 2.0 mph3.2 kmh 29.79 in1008.8 mb 0.00 in0.0 mm 0.00 in0.0 mm 0.00 in0.0 mm
05:06 AM 58.5°F14.7°C 54.0°F12.2°C 85% 0.4 mph SW0.6 kmh SW 4.3 mph6.9 kmh 29.79 in1008.8 mb 0.00 in0.0 mm 0.00 in0.0 mm 0.00 in0.0 mm
05:11 AM 58.5°F14.7°C 54.0°F12.2°C 85% 1.6 mph SW2.6 kmh SW 4.3 mph6.9 kmh 29.79 in1008.8 mb 0.00 in0.0 mm 0.00 in0.0 mm 0.00 in0.0 mm
05:16 AM 58.5°F14.7°C 54.0°F12.2°C 85% 0.4 mph SSW0.6 kmh SSW 4.3 mph6.9 kmh 29.79 in1008.8 mb 0.00 in0.0 mm 0.00 in0.0 mm 0.00 in0.0 mm
05:21 AM 58.5°F14.7°C 54.0°F12.2°C 85% 1.6 mph SW2.6 kmh SW 3.1 mph5.0 kmh 29.79 in1008.8 mb 0.00 in0.0 mm 0.00 in0.0 mm 0.00 in0.0 mm
05:26 AM 58.5°F14.7°C 54.0°F12.2°C 85% 1.8 mph SW2.9 kmh SW 3.1 mph5.0 kmh 29.79 in1008.8 mb 0.00 in0.0 mm 0.00 in0.0 mm 0.00 in0.0 mm
05:31 AM 58.5°F14.7°C 54.0°F12.2°C 85% 0.2 mph SSW0.3 kmh SSW 3.1 mph5.0 kmh 29.80 in1009.1 mb 0.00 in0.0 mm 0.00 in0.0 mm 0.00 in0.0 mm
05:36 AM 58.5°F14.7°C 54.0°F12.2°C 85% 0.2 mph WSW0.3 kmh WSW 2.0 mph3.2 kmh 29.79 in1008.8 mb 0.00 in0.0 mm 0.00 in0.0 mm 0.00 in0.0 mm
05:41 AM 58.5°F14.7°C 54.0°F12.2°C 85% 1.1 mph S1.8 kmh S 2.0 mph3.2 kmh 29.80 in1009.1 mb 0.00 in0.0 mm 0.00 in0.0 mm 0.00 in0.0 mm
05:46 AM 58.5°F14.7°C 54.0°F12.2°C 85% 0.9 mph SW1.4 kmh SW 3.1 mph5.0 kmh 29.80 in1009.1 mb 0.00 in0.0 mm 0.00 in0.0 mm 0.00 in0.0 mm
05:51 AM 58.5°F14.7°C 54.0°F12.2°C 85% 0.7 mph SW1.1 kmh SW 2.0 mph3.2 kmh 29.79 in1008.8 mb 0.00 in0.0 mm 0.00 in0.0 mm 0.00 in0.0 mm
05:56 AM 58.5°F14.7°C 54.0°F12.2°C 85% Calm Calm 2.0 mph3.2 kmh 29.80 in1009.1 mb 0.00 in0.0 mm 0.00 in0.0 mm 0.00 in0.0 mm
06:01 AM 58.5°F14.7°C 54.0°F12.2°C 85% 0.9 mph SW1.4 kmh SW 2.0 mph3.2 kmh 29.80 in1009.1 mb 0.00 in0.0 mm 0.00 in0.0 mm 0.00 in0.0 mm
06:06 AM 58.5°F14.7°C 54.0°F12.2°C 85% Calm Calm 1.1 mph1.8 kmh 29.79 in1008.8 mb 0.00 in0.0 mm 0.00 in0.0 mm 0.00 in0.0 mm
06:11 AM 58.5°F14.7°C 54.0°F12.2°C 85% Calm Calm 1.1 mph1.8 kmh 29.80 in1009.1 mb 0.00 in0.0 mm 0.00 in0.0 mm 0.00 in0.0 mm
06:16 AM 58.5°F14.7°C 54.0°F12.2°C 85% 0.4 mph SW0.6 kmh SW 1.1 mph1.8 kmh 29.80 in1009.1 mb 0.00 in0.0 mm 0.00 in0.0 mm 0.00 in0.0 mm
06:21 AM 58.5°F14.7°C 54.0°F12.2°C 85% 0.7 mph SW1.1 kmh SW 3.1 mph5.0 kmh 29.80 in1009.1 mb 0.00 in0.0 mm 0.00 in0.0 mm 0.00 in0.0 mm
06:26 AM 58.6°F14.8°C 54.1°F12.3°C 85% 0.4 mph SW0.6 kmh SW 3.1 mph5.0 kmh 29.80 in1009.1 mb 0.00 in0.0 mm 0.00 in0.0 mm 0.00 in0.0 mm
06:31 AM 58.6°F14.8°C 54.1°F12.3°C 85% 1.6 mph SW2.6 kmh SW 4.3 mph6.9 kmh 29.80 in1009.1 mb 0.00 in0.0 mm 0.00 in0.0 mm 0.00 in0.0 mm
06:36 AM 58.6°F14.8°C 54.1°F12.3°C 85% 0.4 mph SW0.6 kmh SW 3.1 mph5.0 kmh 29.80 in1009.1 mb 0.00 in0.0 mm 0.00 in0.0 mm 0.00 in0.0 mm
06:41 AM 58.6°F14.8°C 54.1°F12.3°C 85% Calm Calm 3.1 mph5.0 kmh 29.80 in1009.1 mb 0.00 in0.0 mm 0.00 in0.0 mm 0.00 in0.0 mm
06:46 AM 58.8°F14.9°C 54.3°F12.4°C 85% 1.8 mph SW2.9 kmh SW 4.3 mph6.9 kmh 29.80 in1009.1 mb 0.00 in0.0 mm 0.00 in0.0 mm 0.00 in0.0 mm
06:51 AM 58.8°F14.9°C 54.0°F12.2°C 84% 2.0 mph SW3.2 kmh SW 4.3 mph6.9 kmh 29.80 in1009.1 mb 0.00 in0.0 mm 0.00 in0.0 mm 0.00 in0.0 mm
06:56 AM 58.8°F14.9°C 54.0°F12.2°C 84% 2.2 mph SW3.5 kmh SW 4.3 mph6.9 kmh 29.80 in1009.1 mb 0.00 in0.0 mm 0.00 in0.0 mm 0.00 in0.0 mm
07:01 AM 59.0°F15.0°C 54.1°F12.3°C 84% 0.7 mph SW1.1 kmh SW 3.1 mph5.0 kmh 29.81 in1009.5 mb 0.00 in0.0 mm 0.00 in0.0 mm 0.00 in0.0 mm
07:06 AM 59.2°F15.1°C 54.3°F12.4°C 84% 1.1 mph SW1.8 kmh SW 3.1 mph5.0 kmh 29.81 in1009.5 mb 0.00 in0.0 mm 0.00 in0.0 mm 0.00 in0.0 mm
07:11 AM 59.2°F15.1°C 54.3°F12.4°C 84% 0.7 mph SW1.1 kmh SW 4.3 mph6.9 kmh 29.81 in1009.5 mb 0.00 in0.0 mm 0.00 in0.0 mm 0.00 in0.0 mm
07:16 AM 59.2°F15.1°C 54.3°F12.4°C 84% 1.3 mph SW2.1 kmh SW 3.1 mph5.0 kmh 29.81 in1009.5 mb 0.00 in0.0 mm 0.00 in0.0 mm 0.00 in0.0 mm
07:21 AM 59.2°F15.1°C 54.3°F12.4°C 84% 1.1 mph WSW1.8 kmh WSW 3.1 mph5.0 kmh 29.81 in1009.5 mb 0.00 in0.0 mm 0.00 in0.0 mm 0.00 in0.0 mm
07:26 AM 59.4°F15.2°C 54.5°F12.5°C 84% 2.5 mph SW4.0 kmh SW 4.3 mph6.9 kmh 29.81 in1009.5 mb 0.00 in0.0 mm 0.00 in0.0 mm 0.00 in0.0 mm
07:31 AM 59.4°F15.2°C 54.1°F12.3°C 83% 2.2 mph SW3.5 kmh SW 5.4 mph8.7 kmh 29.81 in1009.5 mb 0.00 in0.0 mm 0.00 in0.0 mm 0.00 in0.0 mm
07:36 AM 59.4°F15.2°C 54.1°F12.3°C 83% 1.3 mph SW2.1 kmh SW 5.4 mph8.7 kmh 29.82 in1009.8 mb 0.00 in0.0 mm 0.00 in0.0 mm 0.00 in0.0 mm
07:41 AM 59.5°F15.3°C 54.3°F12.4°C 83% 2.9 mph WSW4.7 kmh WSW 4.3 mph6.9 kmh 29.82 in1009.8 mb 0.00 in0.0 mm 0.00 in0.0 mm 0.00 in0.0 mm
07:46 AM 59.4°F15.2°C 54.5°F12.5°C 84% 1.8 mph SW2.9 kmh SW 4.3 mph6.9 kmh 29.82 in1009.8 mb 0.00 in0.0 mm 0.00 in0.0 mm 0.00 in0.0 mm
07:51 AM 59.5°F15.3°C 54.3°F12.4°C 83% 2.0 mph SW3.2 kmh SW 4.3 mph6.9 kmh 29.82 in1009.8 mb 0.00 in0.0 mm 0.00 in0.0 mm 0.00 in0.0 mm
07:56 AM 59.4°F15.2°C 54.1°F12.3°C 83% 2.5 mph SW4.0 kmh SW 4.3 mph6.9 kmh 29.82 in1009.8 mb 0.00 in0.0 mm 0.00 in0.0 mm 0.00 in0.0 mm
08:01 AM 59.5°F15.3°C 54.3°F12.4°C 83% 0.2 mph SW0.3 kmh SW 4.3 mph6.9 kmh 29.82 in1009.8 mb 0.00 in0.0 mm 0.00 in0.0 mm 0.00 in0.0 mm
08:06 AM 59.5°F15.3°C 54.3°F12.4°C 83% 1.8 mph W2.9 kmh W 4.3 mph6.9 kmh 29.82 in1009.8 mb 0.00 in0.0 mm 0.00 in0.0 mm 0.00 in0.0 mm
08:11 AM 59.7°F15.4°C 54.1°F12.3°C 82% 0.9 mph SSW1.4 kmh SSW 4.3 mph6.9 kmh 29.81 in1009.5 mb 0.00 in0.0 mm 0.00 in0.0 mm 0.00 in0.0 mm
08:16 AM 59.7°F15.4°C 54.5°F12.5°C 83% 0.9 mph WSW1.4 kmh WSW 4.3 mph6.9 kmh 29.82 in1009.8 mb 0.00 in0.0 mm 0.00 in0.0 mm 0.00 in0.0 mm
08:21 AM 59.9°F15.5°C 54.3°F12.4°C 82% 0.9 mph SW1.4 kmh SW 2.0 mph3.2 kmh 29.82 in1009.8 mb 0.00 in0.0 mm 0.00 in0.0 mm 0.00 in0.0 mm
08:26 AM 60.1°F15.6°C 54.5°F12.5°C 82% 1.8 mph SW2.9 kmh SW 4.3 mph6.9 kmh 29.82 in1009.8 mb 0.00 in0.0 mm 0.00 in0.0 mm 0.00 in0.0 mm
08:31 AM 60.1°F15.6°C 54.5°F12.5°C 82% 1.6 mph SW2.6 kmh SW 3.1 mph5.0 kmh 29.82 in1009.8 mb 0.00 in0.0 mm 0.00 in0.0 mm 0.00 in0.0 mm
08:36 AM 60.3°F15.7°C 54.7°F12.6°C 82% 0.7 mph WSW1.1 kmh WSW 2.0 mph3.2 kmh 29.82 in1009.8 mb 0.00 in0.0 mm 0.00 in0.0 mm 0.00 in0.0 mm
08:41 AM 60.4°F15.8°C 54.9°F12.7°C 82% 2.9 mph SSW4.7 kmh SSW 4.3 mph6.9 kmh 29.82 in1009.8 mb 0.00 in0.0 mm 0.00 in0.0 mm 0.00 in0.0 mm
08:46 AM 60.4°F15.8°C 54.9°F12.7°C 82% 2.5 mph SSW4.0 kmh SSW 5.4 mph8.7 kmh 29.82 in1009.8 mb 0.00 in0.0 mm 0.00 in0.0 mm 0.00 in0.0 mm
08:51 AM 60.6°F15.9°C 54.7°F12.6°C 81% 1.8 mph SSW2.9 kmh SSW 4.3 mph6.9 kmh 29.83 in1010.2 mb 0.00 in0.0 mm 0.00 in0.0 mm 0.00 in0.0 mm
08:56 AM 60.6°F15.9°C 54.7°F12.6°C 81% 2.9 mph SSW4.7 kmh SSW 5.4 mph8.7 kmh 29.83 in1010.2 mb 0.00 in0.0 mm 0.00 in0.0 mm 0.00 in0.0 mm
09:01 AM 60.4°F15.8°C 54.3°F12.4°C 80% 3.6 mph SW5.8 kmh SW 5.4 mph8.7 kmh 29.83 in1010.2 mb 0.00 in0.0 mm 0.00 in0.0 mm 0.00 in0.0 mm
09:06 AM 60.6°F15.9°C 54.7°F12.6°C 81% 1.1 mph SW1.8 kmh SW 5.4 mph8.7 kmh 29.83 in1010.2 mb 0.00 in0.0 mm 0.00 in0.0 mm 0.00 in0.0 mm
09:11 AM 60.6°F15.9°C 54.5°F12.5°C 80% 2.5 mph S4.0 kmh S 6.3 mph10.1 kmh 29.83 in1010.2 mb 0.00 in0.0 mm 0.00 in0.0 mm 0.00 in0.0 mm
09:16 AM 60.6°F15.9°C 54.5°F12.5°C 80% 2.5 mph SW4.0 kmh SW 5.4 mph8.7 kmh 29.83 in1010.2 mb 0.00 in0.0 mm 0.00 in0.0 mm 0.00 in0.0 mm
09:21 AM 60.6°F15.9°C 54.5°F12.5°C 80% 2.9 mph SSW4.7 kmh SSW 5.4 mph8.7 kmh 29.83 in1010.2 mb 0.00 in0.0 mm 0.00 in0.0 mm 0.00 in0.0 mm
09:26 AM 60.6°F15.9°C 54.5°F12.5°C 80% 2.0 mph WSW3.2 kmh WSW 5.4 mph8.7 kmh 29.83 in1010.2 mb 0.00 in0.0 mm 0.00 in0.0 mm 0.00 in0.0 mm
09:31 AM 60.8°F16.0°C 54.7°F12.6°C 80% 2.0 mph WSW3.2 kmh WSW 5.4 mph8.7 kmh 29.83 in1010.2 mb 0.00 in0.0 mm 0.00 in0.0 mm 0.00 in0.0 mm
09:36 AM 61.2°F16.2°C 54.9°F12.7°C 80% 1.8 mph SSW2.9 kmh SSW 3.1 mph5.0 kmh 29.83 in1010.2 mb 0.00 in0.0 mm 0.00 in0.0 mm 0.00 in0.0 mm
09:41 AM 61.2°F16.2°C 54.7°F12.6°C 79% 3.1 mph SW5.0 kmh SW 6.3 mph10.1 kmh 29.83 in1010.2 mb 0.00 in0.0 mm 0.00 in0.0 mm 0.00 in0.0 mm
09:46 AM 61.0°F16.1°C 54.1°F12.3°C 78% 2.5 mph SW4.0 kmh SW 6.3 mph10.1 kmh 29.83 in1010.2 mb 0.00 in0.0 mm 0.00 in0.0 mm 0.00 in0.0 mm
09:51 AM 61.2°F16.2°C 54.7°F12.6°C 79% 3.1 mph SW5.0 kmh SW 6.3 mph10.1 kmh 29.83 in1010.2 mb 0.00 in0.0 mm 0.00 in0.0 mm 0.00 in0.0 mm
09:56 AM 61.2°F16.2°C 54.7°F12.6°C 79% 2.2 mph WSW3.5 kmh WSW 5.4 mph8.7 kmh 29.84 in1010.5 mb 0.00 in0.0 mm 0.00 in0.0 mm 0.00 in0.0 mm
10:01 AM 61.2°F16.2°C 54.3°F12.4°C 78% 2.0 mph WSW3.2 kmh WSW 6.3 mph10.1 kmh 29.83 in1010.2 mb 0.00 in0.0 mm 0.00 in0.0 mm 0.00 in0.0 mm
10:06 AM 61.3°F16.3°C 54.5°F12.5°C 78% 2.7 mph WSW4.3 kmh WSW 6.3 mph10.1 kmh 29.84 in1010.5 mb 0.00 in0.0 mm 0.00 in0.0 mm 0.00 in0.0 mm
10:11 AM 61.3°F16.3°C 54.5°F12.5°C 78% 3.8 mph SW6.1 kmh SW 7.4 mph11.9 kmh 29.84 in1010.5 mb 0.00 in0.0 mm 0.00 in0.0 mm 0.00 in0.0 mm
10:16 AM 61.3°F16.3°C 54.5°F12.5°C 78% 2.5 mph SE4.0 kmh SE 6.3 mph10.1 kmh 29.84 in1010.5 mb 0.00 in0.0 mm 0.00 in0.0 mm 0.00 in0.0 mm
10:21 AM 61.5°F16.4°C 54.7°F12.6°C 78% 2.9 mph WSW4.7 kmh WSW 6.3 mph10.1 kmh 29.84 in1010.5 mb 0.00 in0.0 mm 0.00 in0.0 mm 0.00 in0.0 mm
10:26 AM 61.5°F16.4°C 54.3°F12.4°C 77% 2.5 mph SW4.0 kmh SW 5.4 mph8.7 kmh 29.84 in1010.5 mb 0.00 in0.0 mm 0.00 in0.0 mm 0.00 in0.0 mm
10:31 AM 61.5°F16.4°C 54.3°F12.4°C 77% 3.8 mph WSW6.1 kmh WSW 7.4 mph11.9 kmh 29.84 in1010.5 mb 0.00 in0.0 mm 0.00 in0.0 mm 0.00 in0.0 mm
10:36 AM 61.7°F16.5°C 54.5°F12.5°C 77% 3.8 mph S6.1 kmh S 7.4 mph11.9 kmh 29.84 in1010.5 mb 0.00 in0.0 mm 0.00 in0.0 mm 0.00 in0.0 mm
10:41 AM 62.1°F16.7°C 54.7°F12.6°C 77% 1.6 mph SW2.6 kmh SW 5.4 mph8.7 kmh 29.84 in1010.5 mb 0.00 in0.0 mm 0.00 in0.0 mm 0.00 in0.0 mm
10:46 AM 62.2°F16.8°C 54.5°F12.5°C 76% 1.6 mph WNW2.6 kmh WNW 5.4 mph8.7 kmh 29.84 in1010.5 mb 0.00 in0.0 mm 0.00 in0.0 mm 0.00 in0.0 mm
10:51 AM 62.6°F17.0°C 54.5°F12.5°C 75% 3.8 mph WSW6.1 kmh WSW 6.3 mph10.1 kmh 29.84 in1010.5 mb 0.00 in0.0 mm 0.00 in0.0 mm 0.00 in0.0 mm
10:56 AM 63.1°F17.3°C 55.0°F12.8°C 75% 2.7 mph WSW4.3 kmh WSW 5.4 mph8.7 kmh 29.84 in1010.5 mb 0.00 in0.0 mm 0.00 in0.0 mm 0.00 in0.0 mm
11:01 AM 63.0°F17.2°C 54.5°F12.5°C 74% 4.5 mph WSW7.2 kmh WSW 7.4 mph11.9 kmh 29.85 in1010.8 mb 0.00 in0.0 mm 0.00 in0.0 mm 0.00 in0.0 mm
11:06 AM 62.8°F17.1°C 54.7°F12.6°C 75% 2.5 mph WSW4.0 kmh WSW 7.4 mph11.9 kmh 29.85 in1010.8 mb 0.00 in0.0 mm 0.00 in0.0 mm 0.00 in0.0 mm
11:11 AM 62.8°F17.1°C 54.7°F12.6°C 75% 3.4 mph SSW5.5 kmh SSW 8.5 mph13.7 kmh 29.85 in1010.8 mb 0.00 in0.0 mm 0.00 in0.0 mm 0.00 in0.0 mm
11:16 AM 63.0°F17.2°C 54.5°F12.5°C 74% 4.5 mph SSW7.2 kmh SSW 7.4 mph11.9 kmh 29.85 in1010.8 mb 0.00 in0.0 mm 0.00 in0.0 mm 0.00 in0.0 mm
11:21 AM 63.0°F17.2°C 54.5°F12.5°C 74% 2.7 mph W4.3 kmh W 8.5 mph13.7 kmh 29.85 in1010.8 mb 0.00 in0.0 mm 0.00 in0.0 mm 0.00 in0.0 mm
11:26 AM 63.0°F17.2°C 54.5°F12.5°C 74% 2.9 mph SSW4.7 kmh SSW 7.4 mph11.9 kmh 29.85 in1010.8 mb 0.00 in0.0 mm 0.00 in0.0 mm 0.00 in0.0 mm
11:31 AM 63.3°F17.4°C 54.9°F12.7°C 74% 2.9 mph SW4.7 kmh SW 5.4 mph8.7 kmh 29.85 in1010.8 mb 0.00 in0.0 mm 0.00 in0.0 mm 0.00 in0.0 mm
11:36 AM 63.1°F17.3°C 54.7°F12.6°C 74% 4.9 mph SW7.9 kmh SW 9.6 mph15.4 kmh 29.84 in1010.5 mb 0.00 in0.0 mm 0.00 in0.0 mm 0.00 in0.0 mm
11:41 AM 63.3°F17.4°C 54.9°F12.7°C 74% 1.3 mph SW2.1 kmh SW 7.4 mph11.9 kmh 29.84 in1010.5 mb 0.00 in0.0 mm 0.00 in0.0 mm 0.00 in0.0 mm
11:46 AM 64.2°F17.9°C 55.0°F12.8°C 72% 2.7 mph SW4.3 kmh SW 6.3 mph10.1 kmh 29.84 in1010.5 mb 0.00 in0.0 mm 0.00 in0.0 mm 0.00 in0.0 mm
11:51 AM 64.4°F18.0°C 54.3°F12.4°C 70% 4.7 mph W7.6 kmh W 8.5 mph13.7 kmh 29.84 in1010.5 mb 0.00 in0.0 mm 0.00 in0.0 mm 0.00 in0.0 mm
11:56 AM 64.0°F17.8°C 55.2°F12.9°C 73% 3.8 mph SW6.1 kmh SW 7.4 mph11.9 kmh 29.84 in1010.5 mb 0.00 in0.0 mm 0.00 in0.0 mm 0.00 in0.0 mm
12:01 PM 64.8°F18.2°C 55.2°F12.9°C 71% 4.3 mph SSW6.9 kmh SSW 6.3 mph10.1 kmh 29.84 in1010.5 mb 0.00 in0.0 mm 0.00 in0.0 mm 0.00 in0.0 mm
12:06 PM 64.9°F18.3°C 54.9°F12.7°C 70% 6.0 mph SW9.7 kmh SW 13.9 mph22.4 kmh 29.84 in1010.5 mb 0.00 in0.0 mm 0.00 in0.0 mm 0.00 in0.0 mm
12:11 PM 64.8°F18.2°C 54.7°F12.6°C 70% 3.6 mph SW5.8 kmh SW 11.6 mph18.7 kmh 29.84 in1010.5 mb 0.00 in0.0 mm 0.00 in0.0 mm 0.00 in0.0 mm
12:16 PM 64.9°F18.3°C 54.9°F12.7°C 70% 4.9 mph WSW7.9 kmh WSW 9.6 mph15.4 kmh 29.84 in1010.5 mb 0.00 in0.0 mm 0.00 in0.0 mm 0.00 in0.0 mm
12:21 PM 65.1°F18.4°C 55.0°F12.8°C 70% 4.5 mph SW7.2 kmh SW 10.5 mph16.9 kmh 29.84 in1010.5 mb 0.00 in0.0 mm 0.00 in0.0 mm 0.00 in0.0 mm
12:26 PM 65.1°F18.4°C 55.0°F12.8°C 70% 4.0 mph SW6.4 kmh SW 9.6 mph15.4 kmh 29.84 in1010.5 mb 0.00 in0.0 mm 0.00 in0.0 mm 0.00 in0.0 mm
12:31 PM 65.5°F18.6°C 55.0°F12.8°C 69% 4.3 mph SW6.9 kmh SW 10.5 mph16.9 kmh 29.84 in1010.5 mb 0.00 in0.0 mm 0.00 in0.0 mm 0.00 in0.0 mm
12:36 PM 65.5°F18.6°C 54.7°F12.6°C 68% 1.8 mph ESE2.9 kmh ESE 9.6 mph15.4 kmh 29.84 in1010.5 mb 0.00 in0.0 mm 0.00 in0.0 mm 0.00 in0.0 mm
12:41 PM 65.8°F18.8°C 54.5°F12.5°C 67% 4.5 mph W7.2 kmh W 12.8 mph20.6 kmh 29.83 in1010.2 mb 0.00 in0.0 mm 0.00 in0.0 mm 0.00 in0.0 mm
12:46 PM 65.5°F18.6°C 54.7°F12.6°C 68% 2.5 mph WSW4.0 kmh WSW 10.5 mph16.9 kmh 29.84 in1010.5 mb 0.00 in0.0 mm 0.00 in0.0 mm 0.00 in0.0 mm
12:51 PM 65.1°F18.4°C 54.3°F12.4°C 68% 3.6 mph NW5.8 kmh NW 10.5 mph16.9 kmh 29.83 in1010.2 mb 0.00 in0.0 mm 0.00 in0.0 mm 0.00 in0.0 mm
12:56 PM 65.1°F18.4°C 54.7°F12.6°C 69% 4.9 mph SW7.9 kmh SW 8.5 mph13.7 kmh 29.83 in1010.2 mb 0.00 in0.0 mm 0.00 in0.0 mm 0.00 in0.0 mm
01:01 PM 65.1°F18.4°C 54.7°F12.6°C 69% 3.1 mph WSW5.0 kmh WSW 8.5 mph13.7 kmh 29.83 in1010.2 mb 0.00 in0.0 mm 0.00 in0.0 mm 0.00 in0.0 mm
01:06 PM 66.0°F18.9°C 55.2°F12.9°C 68% 6.7 mph WSW10.8 kmh WSW 9.6 mph15.4 kmh 29.83 in1010.2 mb 0.00 in0.0 mm 0.00 in0.0 mm 0.00 in0.0 mm
01:11 PM 66.4°F19.1°C 55.0°F12.8°C 67% 4.9 mph SW7.9 kmh SW 10.5 mph16.9 kmh 29.83 in1010.2 mb 0.00 in0.0 mm 0.00 in0.0 mm 0.00 in0.0 mm
01:16 PM 67.1°F19.5°C 56.7°F13.7°C 69% 4.7 mph WNW7.6 kmh WNW 9.6 mph15.4 kmh 29.83 in1010.2 mb 0.00 in0.0 mm 0.00 in0.0 mm 0.00 in0.0 mm
01:21 PM 67.3°F19.6°C 55.6°F13.1°C 66% 4.3 mph S6.9 kmh S 8.5 mph13.7 kmh 29.83 in1010.2 mb 0.00 in0.0 mm 0.00 in0.0 mm 0.00 in0.0 mm
01:26 PM 67.3°F19.6°C 55.0°F12.8°C 65% 5.1 mph SW8.2 kmh SW 10.5 mph16.9 kmh 29.83 in1010.2 mb 0.00 in0.0 mm 0.00 in0.0 mm 0.00 in0.0 mm
01:31 PM 66.7°F19.3°C 55.0°F12.8°C 66% 4.5 mph SW7.2 kmh SW 10.5 mph16.9 kmh 29.82 in1009.8 mb 0.00 in0.0 mm 0.00 in0.0 mm 0.00 in0.0 mm
01:36 PM 66.6°F19.2°C 55.6°F13.1°C 68% 6.5 mph WSW10.5 kmh WSW 9.6 mph15.4 kmh 29.82 in1009.8 mb 0.00 in0.0 mm 0.00 in0.0 mm 0.00 in0.0 mm
01:41 PM 66.2°F19.0°C 54.5°F12.5°C 66% 4.7 mph NW7.6 kmh NW 11.6 mph18.7 kmh 29.83 in1010.2 mb 0.00 in0.0 mm 0.00 in0.0 mm 0.00 in0.0 mm
01:46 PM 66.2°F19.0°C 55.4°F13.0°C 68% 5.4 mph SW8.7 kmh SW 10.5 mph16.9 kmh 29.82 in1009.8 mb 0.00 in0.0 mm 0.00 in0.0 mm 0.00 in0.0 mm
01:51 PM 66.0°F18.9°C 55.2°F12.9°C 68% 5.8 mph SW9.3 kmh SW 10.5 mph16.9 kmh 29.82 in1009.8 mb 0.00 in0.0 mm 0.00 in0.0 mm 0.00 in0.0 mm
01:56 PM 66.4°F19.1°C 54.7°F12.6°C 66% 5.4 mph SW8.7 kmh SW 12.8 mph20.6 kmh 29.82 in1009.8 mb 0.00 in0.0 mm 0.00 in0.0 mm 0.00 in0.0 mm
02:01 PM 66.7°F19.3°C 55.4°F13.0°C 67% 5.4 mph SSW8.7 kmh SSW 10.5 mph16.9 kmh 29.82 in1009.8 mb 0.00 in0.0 mm 0.00 in0.0 mm 0.00 in0.0 mm
02:06 PM 66.9°F19.4°C 55.2°F12.9°C 66% 5.1 mph WSW8.2 kmh WSW 11.6 mph18.7 kmh 29.82 in1009.8 mb 0.00 in0.0 mm 0.00 in0.0 mm 0.00 in0.0 mm
02:11 PM 66.7°F19.3°C 55.0°F12.8°C 66% 4.3 mph WNW6.9 kmh WNW 10.5 mph16.9 kmh 29.82 in1009.8 mb 0.00 in0.0 mm 0.00 in0.0 mm 0.00 in0.0 mm
02:16 PM 66.6°F19.2°C 54.9°F12.7°C 66% 4.5 mph SW7.2 kmh SW 10.5 mph16.9 kmh 29.82 in1009.8 mb 0.00 in0.0 mm 0.00 in0.0 mm 0.00 in0.0 mm
02:21 PM 66.7°F19.3°C 55.0°F12.8°C 66% 6.5 mph SW10.5 kmh SW 10.5 mph16.9 kmh 29.82 in1009.8 mb 0.00 in0.0 mm 0.00 in0.0 mm 0.00 in0.0 mm
02:26 PM 67.6°F19.8°C 55.4°F13.0°C 65% 5.1 mph SW8.2 kmh SW 9.6 mph15.4 kmh 29.81 in1009.5 mb 0.00 in0.0 mm 0.00 in0.0 mm 0.00 in0.0 mm
02:31 PM 67.6°F19.8°C 55.4°F13.0°C 65% 6.9 mph SW11.1 kmh SW 12.8 mph20.6 kmh 29.81 in1009.5 mb 0.00 in0.0 mm 0.00 in0.0 mm 0.00 in0.0 mm
02:36 PM 66.6°F19.2°C 54.0°F12.2°C 64% 6.9 mph SSW11.1 kmh SSW 12.8 mph20.6 kmh 29.81 in1009.5 mb 0.00 in0.0 mm 0.00 in0.0 mm 0.00 in0.0 mm
02:41 PM 66.4°F19.1°C 54.7°F12.6°C 66% 7.2 mph SW11.6 kmh SW 11.6 mph18.7 kmh 29.81 in1009.5 mb 0.00 in0.0 mm 0.00 in0.0 mm 0.00 in0.0 mm
02:46 PM 66.4°F19.1°C 55.0°F12.8°C 67% 6.3 mph WSW10.1 kmh WSW 10.5 mph16.9 kmh 29.81 in1009.5 mb 0.00 in0.0 mm 0.00 in0.0 mm 0.00 in0.0 mm
02:51 PM 66.4°F19.1°C 55.0°F12.8°C 67% 4.9 mph SW7.9 kmh SW 12.8 mph20.6 kmh 29.81 in1009.5 mb 0.00 in0.0 mm 0.00 in0.0 mm 0.00 in0.0 mm
02:56 PM 66.9°F19.4°C 55.2°F12.9°C 66% 4.0 mph SSW6.4 kmh SSW 10.5 mph16.9 kmh 29.81 in1009.5 mb 0.00 in0.0 mm 0.00 in0.0 mm 0.00 in0.0 mm
03:01 PM 67.3°F19.6°C 54.7°F12.6°C 64% 5.4 mph SW8.7 kmh SW 11.6 mph18.7 kmh 29.81 in1009.5 mb 0.00 in0.0 mm 0.00 in0.0 mm 0.00 in0.0 mm
03:06 PM 67.3°F19.6°C 54.7°F12.6°C 64% 6.9 mph W11.1 kmh W 13.9 mph22.4 kmh 29.81 in1009.5 mb 0.00 in0.0 mm 0.00 in0.0 mm 0.00 in0.0 mm
03:11 PM 66.4°F19.1°C 55.0°F12.8°C 67% 5.4 mph S8.7 kmh S 9.6 mph15.4 kmh 29.80 in1009.1 mb 0.00 in0.0 mm 0.00 in0.0 mm 0.00 in0.0 mm
03:16 PM 66.7°F19.3°C 55.0°F12.8°C 66% 7.2 mph WSW11.6 kmh WSW 10.5 mph16.9 kmh 29.80 in1009.1 mb 0.00 in0.0 mm 0.00 in0.0 mm 0.00 in0.0 mm
03:21 PM 67.1°F19.5°C 55.8°F13.2°C 67% 3.8 mph WSW6.1 kmh WSW 11.6 mph18.7 kmh 29.80 in1009.1 mb 0.00 in0.0 mm 0.00 in0.0 mm 0.00 in0.0 mm
03:26 PM 67.5°F19.7°C 55.8°F13.2°C 66% 6.0 mph SW9.7 kmh SW 8.5 mph13.7 kmh 29.80 in1009.1 mb 0.00 in0.0 mm 0.00 in0.0 mm 0.00 in0.0 mm
03:31 PM 66.9°F19.4°C 54.3°F12.4°C 64% 9.2 mph SW14.8 kmh SW 12.8 mph20.6 kmh 29.80 in1009.1 mb 0.00 in0.0 mm 0.00 in0.0 mm 0.00 in0.0 mm
03:36 PM 66.6°F19.2°C 55.2°F12.9°C 67% 6.0 mph SW9.7 kmh SW 10.5 mph16.9 kmh 29.80 in1009.1 mb 0.00 in0.0 mm 0.00 in0.0 mm 0.00 in0.0 mm
03:41 PM 66.7°F19.3°C 55.0°F12.8°C 66% 5.4 mph SSW8.7 kmh SSW 9.6 mph15.4 kmh 29.80 in1009.1 mb 0.00 in0.0 mm 0.00 in0.0 mm 0.00 in0.0 mm
03:46 PM 66.7°F19.3°C 55.0°F12.8°C 66% 3.4 mph S5.5 kmh S 9.6 mph15.4 kmh 29.80 in1009.1 mb 0.00 in0.0 mm 0.00 in0.0 mm 0.00 in0.0 mm
03:51 PM 67.3°F19.6°C 55.6°F13.1°C 66% 4.9 mph SW7.9 kmh SW 8.5 mph13.7 kmh 29.80 in1009.1 mb 0.00 in0.0 mm 0.00 in0.0 mm 0.00 in0.0 mm
03:56 PM 66.9°F19.4°C 55.2°F12.9°C 66% 3.6 mph WNW5.8 kmh WNW 12.8 mph20.6 kmh 29.79 in1008.8 mb 0.00 in0.0 mm 0.00 in0.0 mm 0.00 in0.0 mm
04:01 PM 67.3°F19.6°C 55.9°F13.3°C 67% 4.0 mph WSW6.4 kmh WSW 9.6 mph15.4 kmh 29.79 in1008.8 mb 0.00 in0.0 mm 0.00 in0.0 mm 0.00 in0.0 mm
04:06 PM 67.3°F19.6°C 55.6°F13.1°C 66% 4.5 mph WSW7.2 kmh WSW 13.9 mph22.4 kmh 29.79 in1008.8 mb 0.00 in0.0 mm 0.00 in0.0 mm 0.00 in0.0 mm
04:11 PM 67.3°F19.6°C 55.0°F12.8°C 65% 5.1 mph SW8.2 kmh SW 10.5 mph16.9 kmh 29.79 in1008.8 mb 0.00 in0.0 mm 0.00 in0.0 mm 0.00 in0.0 mm
04:16 PM 66.9°F19.4°C 55.2°F12.9°C 66% 4.7 mph SSW7.6 kmh SSW 10.5 mph16.9 kmh 29.79 in1008.8 mb 0.00 in0.0 mm 0.00 in0.0 mm 0.00 in0.0 mm
04:21 PM 66.9°F19.4°C 54.9°F12.7°C 65% 4.9 mph W7.9 kmh W 11.6 mph18.7 kmh 29.79 in1008.8 mb 0.00 in0.0 mm 0.00 in0.0 mm 0.00 in0.0 mm
04:26 PM 66.6°F19.2°C 55.6°F13.1°C 68% 4.3 mph SW6.9 kmh SW 8.5 mph13.7 kmh 29.79 in1008.8 mb 0.00 in0.0 mm 0.00 in0.0 mm 0.00 in0.0 mm
04:31 PM 66.2°F19.0°C 54.9°F12.7°C 67% 7.2 mph SW11.6 kmh SW 11.6 mph18.7 kmh 29.79 in1008.8 mb 0.00 in0.0 mm 0.00 in0.0 mm 0.00 in0.0 mm
04:36 PM 66.2°F19.0°C 55.4°F13.0°C 68% 6.0 mph SSW9.7 kmh SSW 9.6 mph15.4 kmh 29.79 in1008.8 mb 0.00 in0.0 mm 0.00 in0.0 mm 0.00 in0.0 mm
04:41 PM 65.8°F18.8°C 55.4°F13.0°C 69% 5.8 mph WSW9.3 kmh WSW 12.8 mph20.6 kmh 29.79 in1008.8 mb 0.00 in0.0 mm 0.00 in0.0 mm 0.00 in0.0 mm
04:46 PM 65.5°F18.6°C 55.4°F13.0°C 70% 4.5 mph SW7.2 kmh SW 11.6 mph18.7 kmh 29.79 in1008.8 mb 0.00 in0.0 mm 0.00 in0.0 mm 0.00 in0.0 mm
04:51 PM 65.3°F18.5°C 55.2°F12.9°C 70% 4.5 mph WSW7.2 kmh WSW 9.6 mph15.4 kmh 29.79 in1008.8 mb 0.00 in0.0 mm 0.00 in0.0 mm 0.00 in0.0 mm
04:56 PM 65.7°F18.7°C 55.2°F12.9°C 69% 7.4 mph SW11.9 kmh SW 12.8 mph20.6 kmh 29.79 in1008.8 mb 0.00 in0.0 mm 0.00 in0.0 mm 0.00 in0.0 mm
05:01 PM 64.9°F18.3°C 54.9°F12.7°C 70% 5.4 mph WSW8.7 kmh WSW 11.6 mph18.7 kmh 29.79 in1008.8 mb 0.00 in0.0 mm 0.00 in0.0 mm 0.00 in0.0 mm
05:06 PM 64.9°F18.3°C 54.9°F12.7°C 70% 6.3 mph SW10.1 kmh SW 11.6 mph18.7 kmh 29.78 in1008.5 mb 0.00 in0.0 mm 0.00 in0.0 mm 0.00 in0.0 mm
05:11 PM 64.6°F18.1°C 55.0°F12.8°C 71% 5.4 mph SW8.7 kmh SW 10.5 mph16.9 kmh 29.78 in1008.5 mb 0.00 in0.0 mm 0.00 in0.0 mm 0.00 in0.0 mm
05:16 PM 64.6°F18.1°C 55.0°F12.8°C 71% 6.5 mph WSW10.5 kmh WSW 10.5 mph16.9 kmh 29.78 in1008.5 mb 0.00 in0.0 mm 0.00 in0.0 mm 0.00 in0.0 mm
05:21 PM 63.9°F17.7°C 55.0°F12.8°C 73% 6.0 mph SW9.7 kmh SW 10.5 mph16.9 kmh 29.78 in1008.5 mb 0.00 in0.0 mm 0.00 in0.0 mm 0.00 in0.0 mm
05:26 PM 63.5°F17.5°C 55.0°F12.8°C 74% 5.4 mph SW8.7 kmh SW 9.6 mph15.4 kmh 29.78 in1008.5 mb 0.00 in0.0 mm 0.00 in0.0 mm 0.00 in0.0 mm
05:31 PM 63.1°F17.3°C 55.0°F12.8°C 75% 5.8 mph SW9.3 kmh SW 8.5 mph13.7 kmh 29.78 in1008.5 mb 0.00 in0.0 mm 0.00 in0.0 mm 0.00 in0.0 mm
05:36 PM 63.0°F17.2°C 54.9°F12.7°C 75% 7.2 mph SSW11.6 kmh SSW 10.5 mph16.9 kmh 29.78 in1008.5 mb 0.00 in0.0 mm 0.00 in0.0 mm 0.00 in0.0 mm
05:41 PM 63.0°F17.2°C 54.9°F12.7°C 75% 5.1 mph SW8.2 kmh SW 8.5 mph13.7 kmh 29.78 in1008.5 mb 0.00 in0.0 mm 0.00 in0.0 mm 0.00 in0.0 mm
05:46 PM 63.0°F17.2°C 54.9°F12.7°C 75% 5.6 mph SSW9.0 kmh SSW 8.5 mph13.7 kmh 29.78 in1008.5 mb 0.00 in0.0 mm 0.00 in0.0 mm 0.00 in0.0 mm
05:51 PM 62.6°F17.0°C 54.5°F12.5°C 75% 5.8 mph SW9.3 kmh SW 10.5 mph16.9 kmh 29.78 in1008.5 mb 0.00 in0.0 mm 0.00 in0.0 mm 0.00 in0.0 mm
05:56 PM 62.6°F17.0°C 54.5°F12.5°C 75% 4.3 mph SW6.9 kmh SW 9.6 mph15.4 kmh 29.78 in1008.5 mb 0.00 in0.0 mm 0.00 in0.0 mm 0.00 in0.0 mm
06:01 PM 62.4°F16.9°C 54.3°F12.4°C 75% 5.6 mph SSW9.0 kmh SSW 9.6 mph15.4 kmh 29.78 in1008.5 mb 0.00 in0.0 mm 0.00 in0.0 mm 0.00 in0.0 mm
06:06 PM 62.2°F16.8°C 54.5°F12.5°C 76% 4.7 mph WSW7.6 kmh WSW 8.5 mph13.7 kmh 29.78 in1008.5 mb 0.00 in0.0 mm 0.00 in0.0 mm 0.00 in0.0 mm
06:11 PM 62.1°F16.7°C 54.3°F12.4°C 76% 5.1 mph SW8.2 kmh SW 9.6 mph15.4 kmh 29.78 in1008.5 mb 0.00 in0.0 mm 0.00 in0.0 mm 0.00 in0.0 mm
06:16 PM 61.9°F16.6°C 54.3°F12.4°C 76% 4.3 mph SW6.9 kmh SW 7.4 mph11.9 kmh 29.78 in1008.5 mb 0.00 in0.0 mm 0.00 in0.0 mm 0.00 in0.0 mm
06:21 PM 61.9°F16.6°C 54.7°F12.6°C 77% 3.4 mph SSW5.5 kmh SSW 7.4 mph11.9 kmh 29.78 in1008.5 mb 0.00 in0.0 mm 0.00 in0.0 mm 0.00 in0.0 mm
06:26 PM 61.5°F16.4°C 54.3°F12.4°C 77% 3.1 mph SW5.0 kmh SW 7.4 mph11.9 kmh 29.78 in1008.5 mb 0.00 in0.0 mm 0.00 in0.0 mm 0.00 in0.0 mm
06:31 PM 61.3°F16.3°C 54.1°F12.3°C 77% 4.7 mph SW7.6 kmh SW 6.3 mph10.1 kmh 29.78 in1008.5 mb 0.00 in0.0 mm 0.00 in0.0 mm 0.00 in0.0 mm
06:36 PM 61.2°F16.2°C 54.3°F12.4°C 78% 4.3 mph SSW6.9 kmh SSW 7.4 mph11.9 kmh 29.78 in1008.5 mb 0.00 in0.0 mm 0.00 in0.0 mm 0.00 in0.0 mm
06:41 PM 61.2°F16.2°C 54.3°F12.4°C 78% 3.8 mph SW6.1 kmh SW 7.4 mph11.9 kmh 29.78 in1008.5 mb 0.00 in0.0 mm 0.00 in0.0 mm 0.00 in0.0 mm
06:46 PM 61.0°F16.1°C 54.1°F12.3°C 78% 2.5 mph S4.0 kmh S 5.4 mph8.7 kmh 29.78 in1008.5 mb 0.00 in0.0 mm 0.00 in0.0 mm 0.00 in0.0 mm
06:51 PM 61.2°F16.2°C 54.7°F12.6°C 79% 4.7 mph SW7.6 kmh SW 7.4 mph11.9 kmh 29.78 in1008.5 mb 0.00 in0.0 mm 0.00 in0.0 mm 0.00 in0.0 mm
06:56 PM 60.6°F15.9°C 54.1°F12.3°C 79% 3.6 mph S5.8 kmh S 7.4 mph11.9 kmh 29.78 in1008.5 mb 0.00 in0.0 mm 0.00 in0.0 mm 0.00 in0.0 mm
07:01 PM 60.6°F15.9°C 54.1°F12.3°C 79% 3.1 mph SSW5.0 kmh SSW 7.4 mph11.9 kmh 29.79 in1008.8 mb 0.00 in0.0 mm 0.00 in0.0 mm 0.00 in0.0 mm
07:06 PM 60.4°F15.8°C 54.3°F12.4°C 80% 3.6 mph WSW5.8 kmh WSW 6.3 mph10.1 kmh 29.79 in1008.8 mb 0.00 in0.0 mm 0.00 in0.0 mm 0.00 in0.0 mm
07:11 PM 60.3°F15.7°C 54.1°F12.3°C 80% 4.7 mph SW7.6 kmh SW 8.5 mph13.7 kmh 29.79 in1008.8 mb 0.00 in0.0 mm 0.00 in0.0 mm 0.00 in0.0 mm
07:16 PM 60.3°F15.7°C 54.1°F12.3°C 80% 4.0 mph SW6.4 kmh SW 7.4 mph11.9 kmh 29.80 in1009.1 mb 0.00 in0.0 mm 0.00 in0.0 mm 0.00 in0.0 mm
07:21 PM 60.3°F15.7°C 54.1°F12.3°C 80% 2.5 mph SSW4.0 kmh SSW 7.4 mph11.9 kmh 29.80 in1009.1 mb 0.00 in0.0 mm 0.00 in0.0 mm 0.00 in0.0 mm
07:26 PM 60.3°F15.7°C 54.1°F12.3°C 80% 2.7 mph WSW4.3 kmh WSW 6.3 mph10.1 kmh 29.80 in1009.1 mb 0.00 in0.0 mm 0.00 in0.0 mm 0.00 in0.0 mm
07:31 PM 60.3°F15.7°C 54.1°F12.3°C 80% 2.5 mph WNW4.0 kmh WNW 4.3 mph6.9 kmh 29.80 in1009.1 mb 0.00 in0.0 mm 0.00 in0.0 mm 0.00 in0.0 mm
07:36 PM 60.1°F15.6°C 54.0°F12.2°C 80% 3.1 mph W5.0 kmh W 6.3 mph10.1 kmh 29.80 in1009.1 mb 0.00 in0.0 mm 0.00 in0.0 mm 0.00 in0.0 mm
07:41 PM 60.1°F15.6°C 54.0°F12.2°C 80% 3.8 mph SSW6.1 kmh SSW 6.3 mph10.1 kmh 29.80 in1009.1 mb 0.00 in0.0 mm 0.00 in0.0 mm 0.00 in0.0 mm
07:46 PM 60.1°F15.6°C 54.0°F12.2°C 80% 2.7 mph W4.3 kmh W 5.4 mph8.7 kmh 29.80 in1009.1 mb 0.00 in0.0 mm 0.00 in0.0 mm 0.00 in0.0 mm
07:51 PM 60.1°F15.6°C 54.3°F12.4°C 81% 4.5 mph WSW7.2 kmh WSW 6.3 mph10.1 kmh 29.80 in1009.1 mb 0.00 in0.0 mm 0.00 in0.0 mm 0.00 in0.0 mm
07:56 PM 59.9°F15.5°C 54.1°F12.3°C 81% 3.4 mph WSW5.5 kmh WSW 7.4 mph11.9 kmh 29.80 in1009.1 mb 0.00 in0.0 mm 0.00 in0.0 mm 0.00 in0.0 mm
08:01 PM 59.7°F15.4°C 54.0°F12.2°C 81% 3.4 mph SW5.5 kmh SW 5.4 mph8.7 kmh 29.81 in1009.5 mb 0.00 in0.0 mm 0.00 in0.0 mm 0.00 in0.0 mm
08:06 PM 59.7°F15.4°C 54.0°F12.2°C 81% 2.7 mph SW4.3 kmh SW 6.3 mph10.1 kmh 29.81 in1009.5 mb 0.00 in0.0 mm 0.00 in0.0 mm 0.00 in0.0 mm
08:11 PM 59.7°F15.4°C 54.0°F12.2°C 81% 3.4 mph SW5.5 kmh SW 7.4 mph11.9 kmh 29.81 in1009.5 mb 0.00 in0.0 mm 0.00 in0.0 mm 0.00 in0.0 mm
08:16 PM 59.7°F15.4°C 54.0°F12.2°C 81% 3.4 mph SSW5.5 kmh SSW 5.4 mph8.7 kmh 29.81 in1009.5 mb 0.00 in0.0 mm 0.00 in0.0 mm 0.00 in0.0 mm
08:21 PM 59.7°F15.4°C 54.0°F12.2°C 81% 1.8 mph SW2.9 kmh SW 5.4 mph8.7 kmh 29.81 in1009.5 mb 0.00 in0.0 mm 0.00 in0.0 mm 0.00 in0.0 mm
08:26 PM 59.5°F15.3°C 53.8°F12.1°C 81% 2.0 mph SW3.2 kmh SW 4.3 mph6.9 kmh 29.81 in1009.5 mb 0.00 in0.0 mm 0.00 in0.0 mm 0.00 in0.0 mm
08:31 PM 59.5°F15.3°C 53.8°F12.1°C 81% 2.7 mph SW4.3 kmh SW 6.3 mph10.1 kmh 29.81 in1009.5 mb 0.00 in0.0 mm 0.00 in0.0 mm 0.00 in0.0 mm
08:36 PM 59.5°F15.3°C 54.0°F12.2°C 82% 1.1 mph W1.8 kmh W 3.1 mph5.0 kmh 29.81 in1009.5 mb 0.00 in0.0 mm 0.00 in0.0 mm 0.00 in0.0 mm
08:41 PM 59.7°F15.4°C 54.1°F12.3°C 82% 2.2 mph SW3.5 kmh SW 3.1 mph5.0 kmh 29.82 in1009.8 mb 0.00 in0.0 mm 0.00 in0.0 mm 0.00 in0.0 mm
08:46 PM 59.7°F15.4°C 54.0°F12.2°C 81% 2.7 mph SW4.3 kmh SW 4.3 mph6.9 kmh 29.81 in1009.5 mb 0.00 in0.0 mm 0.00 in0.0 mm 0.00 in0.0 mm
08:51 PM 59.7°F15.4°C 54.0°F12.2°C 81% 1.6 mph SW2.6 kmh SW 4.3 mph6.9 kmh 29.82 in1009.8 mb 0.00 in0.0 mm 0.00 in0.0 mm 0.00 in0.0 mm
08:56 PM 59.5°F15.3°C 54.0°F12.2°C 82% 0.9 mph SW1.4 kmh SW 5.4 mph8.7 kmh 29.82 in1009.8 mb 0.00 in0.0 mm 0.00 in0.0 mm 0.00 in0.0 mm
09:01 PM 59.5°F15.3°C 54.0°F12.2°C 82% 2.2 mph SW3.5 kmh SW 4.3 mph6.9 kmh 29.82 in1009.8 mb 0.00 in0.0 mm 0.00 in0.0 mm 0.00 in0.0 mm
09:06 PM 59.5°F15.3°C 54.0°F12.2°C 82% 0.9 mph SW1.4 kmh SW 3.1 mph5.0 kmh 29.82 in1009.8 mb 0.00 in0.0 mm 0.00 in0.0 mm 0.00 in0.0 mm
09:11 PM 59.5°F15.3°C 54.0°F12.2°C 82% 2.9 mph SW4.7 kmh SW 5.4 mph8.7 kmh 29.83 in1010.2 mb 0.00 in0.0 mm 0.00 in0.0 mm 0.00 in0.0 mm
09:16 PM 59.5°F15.3°C 54.0°F12.2°C 82% 1.8 mph SW2.9 kmh SW 4.3 mph6.9 kmh 29.83 in1010.2 mb 0.00 in0.0 mm 0.00 in0.0 mm 0.00 in0.0 mm
09:21 PM 59.5°F15.3°C 53.8°F12.1°C 81% 2.7 mph SW4.3 kmh SW 4.3 mph6.9 kmh 29.83 in1010.2 mb 0.00 in0.0 mm 0.00 in0.0 mm 0.00 in0.0 mm
09:26 PM 59.5°F15.3°C 53.8°F12.1°C 81% 2.0 mph SSW3.2 kmh SSW 4.3 mph6.9 kmh 29.83 in1010.2 mb 0.00 in0.0 mm 0.00 in0.0 mm 0.00 in0.0 mm
09:31 PM 59.5°F15.3°C 53.8°F12.1°C 81% 2.0 mph SSW3.2 kmh SSW 4.3 mph6.9 kmh 29.83 in1010.2 mb 0.00 in0.0 mm 0.00 in0.0 mm 0.00 in0.0 mm
09:36 PM 59.5°F15.3°C 53.8°F12.1°C 81% 1.8 mph SW2.9 kmh SW 3.1 mph5.0 kmh 29.83 in1010.2 mb 0.00 in0.0 mm 0.00 in0.0 mm 0.00 in0.0 mm
09:41 PM 59.5°F15.3°C 53.8°F12.1°C 81% 2.5 mph SW4.0 kmh SW 4.3 mph6.9 kmh 29.83 in1010.2 mb 0.00 in0.0 mm 0.00 in0.0 mm 0.00 in0.0 mm
09:46 PM 59.5°F15.3°C 53.8°F12.1°C 81% 0.4 mph WSW0.6 kmh WSW 3.1 mph5.0 kmh 29.83 in1010.2 mb 0.00 in0.0 mm 0.00 in0.0 mm 0.00 in0.0 mm
09:51 PM 59.7°F15.4°C 54.0°F12.2°C 81% 1.8 mph SW2.9 kmh SW 4.3 mph6.9 kmh 29.83 in1010.2 mb 0.00 in0.0 mm 0.00 in0.0 mm 0.00 in0.0 mm
09:56 PM 59.7°F15.4°C 54.0°F12.2°C 81% 2.5 mph SW4.0 kmh SW 5.4 mph8.7 kmh 29.84 in1010.5 mb 0.00 in0.0 mm 0.00 in0.0 mm 0.00 in0.0 mm
10:01 PM 59.7°F15.4°C 54.0°F12.2°C 81% 2.7 mph SW4.3 kmh SW 5.4 mph8.7 kmh 29.84 in1010.5 mb 0.00 in0.0 mm 0.00 in0.0 mm 0.00 in0.0 mm
10:06 PM 59.7°F15.4°C 54.0°F12.2°C 81% 3.6 mph SW5.8 kmh SW 6.3 mph10.1 kmh 29.84 in1010.5 mb 0.00 in0.0 mm 0.00 in0.0 mm 0.00 in0.0 mm
10:11 PM 59.7°F15.4°C 54.0°F12.2°C 81% 0.9 mph SSW1.4 kmh SSW 3.1 mph5.0 kmh 29.84 in1010.5 mb 0.00 in0.0 mm 0.00 in0.0 mm 0.00 in0.0 mm
10:16 PM 59.7°F15.4°C 54.0°F12.2°C 81% 2.9 mph SSW4.7 kmh SSW 6.3 mph10.1 kmh 29.84 in1010.5 mb 0.00 in0.0 mm 0.00 in0.0 mm 0.00 in0.0 mm
10:21 PM 59.5°F15.3°C 53.8°F12.1°C 81% 2.0 mph SW3.2 kmh SW 5.4 mph8.7 kmh 29.84 in1010.5 mb 0.00 in0.0 mm 0.00 in0.0 mm 0.00 in0.0 mm
10:26 PM 59.7°F15.4°C 54.0°F12.2°C 81% 2.0 mph SSW3.2 kmh SSW 4.3 mph6.9 kmh 29.84 in1010.5 mb 0.00 in0.0 mm 0.00 in0.0 mm 0.00 in0.0 mm
10:31 PM 59.5°F15.3°C 53.8°F12.1°C 81% 2.7 mph SW4.3 kmh SW 5.4 mph8.7 kmh 29.84 in1010.5 mb 0.00 in0.0 mm 0.00 in0.0 mm 0.00 in0.0 mm
10:36 PM 59.5°F15.3°C 53.8°F12.1°C 81% 2.5 mph WSW4.0 kmh WSW 4.3 mph6.9 kmh 29.85 in1010.8 mb 0.00 in0.0 mm 0.00 in0.0 mm 0.00 in0.0 mm
10:41 PM 59.5°F15.3°C 53.8°F12.1°C 81% 1.3 mph SW2.1 kmh SW 5.4 mph8.7 kmh 29.84 in1010.5 mb 0.00 in0.0 mm 0.00 in0.0 mm 0.00 in0.0 mm
10:46 PM 59.4°F15.2°C 53.6°F12.0°C 81% 1.1 mph SSW1.8 kmh SSW 4.3 mph6.9 kmh 29.84 in1010.5 mb 0.00 in0.0 mm 0.00 in0.0 mm 0.00 in0.0 mm
10:51 PM 59.4°F15.2°C 53.8°F12.1°C 82% 0.2 mph SSW0.3 kmh SSW 3.1 mph5.0 kmh 29.84 in1010.5 mb 0.00 in0.0 mm 0.00 in0.0 mm 0.00 in0.0 mm
10:56 PM 59.4°F15.2°C 53.8°F12.1°C 82% 1.3 mph WSW2.1 kmh WSW 3.1 mph5.0 kmh 29.84 in1010.5 mb 0.00 in0.0 mm 0.00 in0.0 mm 0.00 in0.0 mm
11:01 PM 59.4°F15.2°C 53.8°F12.1°C 82% 1.3 mph SW2.1 kmh SW 4.3 mph6.9 kmh 29.84 in1010.5 mb 0.00 in0.0 mm 0.00 in0.0 mm 0.00 in0.0 mm
11:06 PM 59.4°F15.2°C 53.8°F12.1°C 82% 1.1 mph WSW1.8 kmh WSW 2.0 mph3.2 kmh 29.84 in1010.5 mb 0.00 in0.0 mm 0.00 in0.0 mm 0.00 in0.0 mm
11:11 PM 59.4°F15.2°C 53.8°F12.1°C 82% 1.6 mph WSW2.6 kmh WSW 3.1 mph5.0 kmh 29.84 in1010.5 mb 0.00 in0.0 mm 0.00 in0.0 mm 0.00 in0.0 mm
11:16 PM 59.4°F15.2°C 53.8°F12.1°C 82% 2.0 mph WSW3.2 kmh WSW 4.3 mph6.9 kmh 29.85 in1010.8 mb 0.00 in0.0 mm 0.00 in0.0 mm 0.00 in0.0 mm
11:21 PM 59.4°F15.2°C 53.8°F12.1°C 82% 1.6 mph SW2.6 kmh SW 4.3 mph6.9 kmh 29.84 in1010.5 mb 0.00 in0.0 mm 0.00 in0.0 mm 0.00 in0.0 mm
11:26 PM 59.4°F15.2°C 53.8°F12.1°C 82% 0.9 mph WSW1.4 kmh WSW 3.1 mph5.0 kmh 29.85 in1010.8 mb 0.00 in0.0 mm 0.00 in0.0 mm 0.00 in0.0 mm
11:31 PM 59.4°F15.2°C 53.8°F12.1°C 82% 0.9 mph W1.4 kmh W 2.0 mph3.2 kmh 29.84 in1010.5 mb 0.00 in0.0 mm 0.00 in0.0 mm 0.00 in0.0 mm
11:36 PM 59.4°F15.2°C 53.8°F12.1°C 82% 0.4 mph SSW0.6 kmh SSW 2.0 mph3.2 kmh 29.85 in1010.8 mb 0.00 in0.0 mm 0.00 in0.0 mm 0.00 in0.0 mm
11:41 PM 59.4°F15.2°C 53.8°F12.1°C 82% 2.2 mph SW3.5 kmh SW 3.1 mph5.0 kmh 29.84 in1010.5 mb 0.00 in0.0 mm 0.00 in0.0 mm 0.00 in0.0 mm
11:46 PM 59.4°F15.2°C 53.8°F12.1°C 82% 1.8 mph W2.9 kmh W 3.1 mph5.0 kmh 29.84 in1010.5 mb 0.00 in0.0 mm 0.00 in0.0 mm 0.00 in0.0 mm
11:51 PM 59.4°F15.2°C 53.8°F12.1°C 82% 1.8 mph SW2.9 kmh SW 3.1 mph5.0 kmh 29.84 in1010.5 mb 0.00 in0.0 mm 0.00 in0.0 mm 0.00 in0.0 mm
11:56 PM 59.4°F15.2°C 53.8°F12.1°C 82% 1.1 mph SW1.8 kmh SW 5.4 mph8.7 kmh 29.84 in1010.5 mb 0.00 in0.0 mm 0.00 in0.0 mm 0.00 in0.0 mm